sensor_id;sensor_type;location;lat;lon;timestamp;P1;durP1;ratioP1;P2;durP2;ratioP2
9761;SDS011;4920;49.594;11.022;2023-06-10T00:01:22;12.03;;;10.00;;
9761;SDS011;4920;49.594;11.022;2023-06-10T00:03:52;14.73;;;11.00;;
9761;SDS011;4920;49.594;11.022;2023-06-10T00:06:21;13.27;;;11.00;;
9761;SDS011;4920;49.594;11.022;2023-06-10T00:08:51;11.80;;;10.60;;
9761;SDS011;4920;49.594;11.022;2023-06-10T00:11:20;11.73;;;10.63;;
9761;SDS011;4920;49.594;11.022;2023-06-10T00:13:49;11.47;;;10.20;;
9761;SDS011;4920;49.594;11.022;2023-06-10T00:16:18;13.00;;;10.27;;
9761;SDS011;4920;49.594;11.022;2023-06-10T00:18:46;11.40;;;9.73;;
9761;SDS011;4920;49.594;11.022;2023-06-10T00:21:19;10.17;;;8.60;;
9761;SDS011;4920;49.594;11.022;2023-06-10T00:23:47;12.70;;;8.93;;
9761;SDS011;4920;49.594;11.022;2023-06-10T00:26:16;10.20;;;9.10;;
9761;SDS011;4920;49.594;11.022;2023-06-10T00:28:46;11.07;;;9.20;;
9761;SDS011;4920;49.594;11.022;2023-06-10T00:31:14;11.60;;;9.00;;
9761;SDS011;4920;49.594;11.022;2023-06-10T00:33:44;11.00;;;10.00;;
9761;SDS011;4920;49.594;11.022;2023-06-10T00:36:12;10.80;;;9.50;;
9761;SDS011;4920;49.594;11.022;2023-06-10T00:38:42;11.73;;;9.63;;
9761;SDS011;4920;49.594;11.022;2023-06-10T00:41:11;11.17;;;10.07;;
9761;SDS011;4920;49.594;11.022;2023-06-10T00:43:40;11.30;;;10.10;;
9761;SDS011;4920;49.594;11.022;2023-06-10T00:46:09;11.47;;;9.77;;
9761;SDS011;4920;49.594;11.022;2023-06-10T00:48:38;10.20;;;9.20;;
9761;SDS011;4920;49.594;11.022;2023-06-10T00:51:08;11.40;;;10.23;;
9761;SDS011;4920;49.594;11.022;2023-06-10T00:53:39;11.60;;;9.40;;
9761;SDS011;4920;49.594;11.022;2023-06-10T00:56:10;10.90;;;9.80;;
9761;SDS011;4920;49.594;11.022;2023-06-10T00:58:39;11.50;;;10.27;;
9761;SDS011;4920;49.594;11.022;2023-06-10T01:01:08;10.90;;;9.90;;
9761;SDS011;4920;49.594;11.022;2023-06-10T01:03:38;12.40;;;10.07;;
9761;SDS011;4920;49.594;11.022;2023-06-10T01:06:09;12.07;;;9.60;;
9761;SDS011;4920;49.594;11.022;2023-06-10T01:08:46;11.23;;;9.60;;
9761;SDS011;4920;49.594;11.022;2023-06-10T01:11:23;10.50;;;9.40;;
9761;SDS011;4920;49.594;11.022;2023-06-10T01:13:56;10.30;;;9.30;;
9761;SDS011;4920;49.594;11.022;2023-06-10T01:16:26;13.73;;;9.10;;
9761;SDS011;4920;49.594;11.022;2023-06-10T01:18:55;11.03;;;9.73;;
9761;SDS011;4920;49.594;11.022;2023-06-10T01:21:26;13.67;;;9.60;;
9761;SDS011;4920;49.594;11.022;2023-06-10T01:23:54;10.40;;;9.30;;
9761;SDS011;4920;49.594;11.022;2023-06-10T01:26:25;13.40;;;10.17;;
9761;SDS011;4920;49.594;11.022;2023-06-10T01:28:58;15.10;;;10.30;;
9761;SDS011;4920;49.594;11.022;2023-06-10T01:31:33;12.97;;;10.07;;
9761;SDS011;4920;49.594;11.022;2023-06-10T01:34:10;11.50;;;9.70;;
9761;SDS011;4920;49.594;11.022;2023-06-10T01:36:42;12.83;;;10.30;;
9761;SDS011;4920;49.594;11.022;2023-06-10T01:39:15;11.83;;;10.37;;
9761;SDS011;4920;49.594;11.022;2023-06-10T01:41:45;13.47;;;10.23;;
9761;SDS011;4920;49.594;11.022;2023-06-10T01:44:17;11.37;;;10.00;;
9761;SDS011;4920;49.594;11.022;2023-06-10T01:46:46;11.47;;;9.73;;
9761;SDS011;4920;49.594;11.022;2023-06-10T01:49:15;11.27;;;10.07;;
9761;SDS011;4920;49.594;11.022;2023-06-10T01:51:45;12.63;;;10.83;;
9761;SDS011;4920;49.594;11.022;2023-06-10T01:54:14;10.93;;;9.80;;
9761;SDS011;4920;49.594;11.022;2023-06-10T01:56:43;10.87;;;9.70;;
9761;SDS011;4920;49.594;11.022;2023-06-10T01:59:11;12.57;;;10.10;;
9761;SDS011;4920;49.594;11.022;2023-06-10T02:01:40;13.53;;;10.40;;
9761;SDS011;4920;49.594;11.022;2023-06-10T02:04:09;11.60;;;10.30;;
9761;SDS011;4920;49.594;11.022;2023-06-10T02:06:38;11.93;;;10.70;;
9761;SDS011;4920;49.594;11.022;2023-06-10T02:09:08;12.83;;;10.57;;
9761;SDS011;4920;49.594;11.022;2023-06-10T02:11:37;15.23;;;10.10;;
9761;SDS011;4920;49.594;11.022;2023-06-10T02:14:05;12.17;;;10.23;;
9761;SDS011;4920;49.594;11.022;2023-06-10T02:16:34;10.40;;;9.37;;
9761;SDS011;4920;49.594;11.022;2023-06-10T02:19:04;12.80;;;10.10;;
9761;SDS011;4920;49.594;11.022;2023-06-10T02:21:34;11.93;;;10.30;;
9761;SDS011;4920;49.594;11.022;2023-06-10T02:24:03;11.47;;;10.37;;
9761;SDS011;4920;49.594;11.022;2023-06-10T02:26:35;11.40;;;10.20;;
9761;SDS011;4920;49.594;11.022;2023-06-10T02:29:04;12.27;;;10.97;;
9761;SDS011;4920;49.594;11.022;2023-06-10T02:31:33;13.13;;;10.80;;
9761;SDS011;4920;49.594;11.022;2023-06-10T02:34:03;13.40;;;10.50;;
9761;SDS011;4920;49.594;11.022;2023-06-10T02:36:32;11.57;;;10.33;;
9761;SDS011;4920;49.594;11.022;2023-06-10T02:39:02;12.63;;;10.50;;
9761;SDS011;4920;49.594;11.022;2023-06-10T02:41:32;11.47;;;10.27;;
9761;SDS011;4920;49.594;11.022;2023-06-10T02:44:03;13.27;;;10.73;;
9761;SDS011;4920;49.594;11.022;2023-06-10T02:46:32;11.27;;;10.00;;
9761;SDS011;4920;49.594;11.022;2023-06-10T02:49:03;12.20;;;10.60;;
9761;SDS011;4920;49.594;11.022;2023-06-10T02:51:31;11.47;;;10.13;;
9761;SDS011;4920;49.594;11.022;2023-06-10T02:54:02;11.37;;;10.00;;
9761;SDS011;4920;49.594;11.022;2023-06-10T02:56:31;11.20;;;10.10;;
9761;SDS011;4920;49.594;11.022;2023-06-10T02:59:03;12.43;;;10.00;;
9761;SDS011;4920;49.594;11.022;2023-06-10T03:01:34;11.27;;;10.07;;
9761;SDS011;4920;49.594;11.022;2023-06-10T03:04:07;12.83;;;10.07;;
9761;SDS011;4920;49.594;11.022;2023-06-10T03:06:37;11.70;;;9.83;;
9761;SDS011;4920;49.594;11.022;2023-06-10T03:09:19;10.70;;;9.60;;
9761;SDS011;4920;49.594;11.022;2023-06-10T03:11:51;11.27;;;9.40;;
9761;SDS011;4920;49.594;11.022;2023-06-10T03:14:21;10.60;;;8.90;;
9761;SDS011;4920;49.594;11.022;2023-06-10T03:16:51;10.20;;;8.93;;
9761;SDS011;4920;49.594;11.022;2023-06-10T03:19:22;11.47;;;8.80;;
9761;SDS011;4920;49.594;11.022;2023-06-10T03:22:07;12.70;;;8.97;;
9761;SDS011;4920;49.594;11.022;2023-06-10T03:25:00;10.17;;;9.17;;
9761;SDS011;4920;49.594;11.022;2023-06-10T03:27:28;11.17;;;9.03;;
9761;SDS011;4920;49.594;11.022;2023-06-10T03:30:01;10.57;;;9.50;;
9761;SDS011;4920;49.594;11.022;2023-06-10T03:32:31;11.63;;;10.03;;
9761;SDS011;4920;49.594;11.022;2023-06-10T03:35:00;11.20;;;9.00;;
9761;SDS011;4920;49.594;11.022;2023-06-10T03:37:30;10.83;;;9.00;;
9761;SDS011;4920;49.594;11.022;2023-06-10T03:39:59;10.50;;;8.87;;
9761;SDS011;4920;49.594;11.022;2023-06-10T03:42:29;12.83;;;9.03;;
9761;SDS011;4920;49.594;11.022;2023-06-10T03:44:58;12.33;;;9.10;;
9761;SDS011;4920;49.594;11.022;2023-06-10T03:47:34;11.70;;;9.00;;
9761;SDS011;4920;49.594;11.022;2023-06-10T03:50:07;10.97;;;9.27;;
9761;SDS011;4920;49.594;11.022;2023-06-10T03:52:38;11.60;;;8.93;;
9761;SDS011;4920;49.594;11.022;2023-06-10T03:55:08;11.67;;;9.23;;
9761;SDS011;4920;49.594;11.022;2023-06-10T03:57:40;11.20;;;9.40;;
9761;SDS011;4920;49.594;11.022;2023-06-10T04:00:10;15.20;;;8.80;;
9761;SDS011;4920;49.594;11.022;2023-06-10T04:02:44;9.97;;;8.47;;
9761;SDS011;4920;49.594;11.022;2023-06-10T04:05:28;10.30;;;8.97;;
9761;SDS011;4920;49.594;11.022;2023-06-10T04:07:57;10.50;;;9.27;;
9761;SDS011;4920;49.594;11.022;2023-06-10T04:10:26;9.17;;;8.27;;
9761;SDS011;4920;49.594;11.022;2023-06-10T04:12:55;9.50;;;8.50;;
9761;SDS011;4920;49.594;11.022;2023-06-10T04:15:27;10.53;;;8.40;;
9761;SDS011;4920;49.594;11.022;2023-06-10T04:17:58;8.93;;;7.87;;
9761;SDS011;4920;49.594;11.022;2023-06-10T04:20:28;10.98;;;7.95;;
9761;SDS011;4920;49.594;11.022;2023-06-10T04:22:57;9.10;;;7.50;;
9761;SDS011;4920;49.594;11.022;2023-06-10T04:25:27;8.23;;;6.93;;
9761;SDS011;4920;49.594;11.022;2023-06-10T04:27:55;8.10;;;7.28;;
9761;SDS011;4920;49.594;11.022;2023-06-10T04:30:24;8.40;;;7.60;;
9761;SDS011;4920;49.594;11.022;2023-06-10T04:32:53;8.95;;;7.55;;
9761;SDS011;4920;49.594;11.022;2023-06-10T04:35:24;8.35;;;7.55;;
9761;SDS011;4920;49.594;11.022;2023-06-10T04:37:57;8.70;;;7.80;;
9761;SDS011;4920;49.594;11.022;2023-06-10T04:40:26;8.18;;;7.35;;
9761;SDS011;4920;49.594;11.022;2023-06-10T04:42:55;8.75;;;7.85;;
9761;SDS011;4920;49.594;11.022;2023-06-10T04:45:24;9.88;;;7.53;;
9761;SDS011;4920;49.594;11.022;2023-06-10T04:47:53;9.07;;;8.20;;
9761;SDS011;4920;49.594;11.022;2023-06-10T04:50:24;8.35;;;7.47;;
9761;SDS011;4920;49.594;11.022;2023-06-10T04:52:53;8.00;;;7.20;;
9761;SDS011;4920;49.594;11.022;2023-06-10T04:55:24;8.10;;;7.40;;
9761;SDS011;4920;49.594;11.022;2023-06-10T04:57:53;7.63;;;6.93;;
9761;SDS011;4920;49.594;11.022;2023-06-10T05:00:21;8.50;;;7.63;;
9761;SDS011;4920;49.594;11.022;2023-06-10T05:02:50;8.23;;;7.25;;
9761;SDS011;4920;49.594;11.022;2023-06-10T05:05:19;10.00;;;7.78;;
9761;SDS011;4920;49.594;11.022;2023-06-10T05:07:49;7.75;;;6.95;;
9761;SDS011;4920;49.594;11.022;2023-06-10T05:10:18;8.27;;;7.07;;
9761;SDS011;4920;49.594;11.022;2023-06-10T05:12:47;7.63;;;6.82;;
9761;SDS011;4920;49.594;11.022;2023-06-10T05:15:15;9.80;;;7.03;;
9761;SDS011;4920;49.594;11.022;2023-06-10T05:17:44;8.15;;;7.22;;
9761;SDS011;4920;49.594;11.022;2023-06-10T05:20:13;7.78;;;7.05;;
9761;SDS011;4920;49.594;11.022;2023-06-10T05:22:41;7.57;;;6.38;;
9761;SDS011;4920;49.594;11.022;2023-06-10T05:25:12;7.60;;;6.90;;
9761;SDS011;4920;49.594;11.022;2023-06-10T05:27:41;7.60;;;6.80;;
9761;SDS011;4920;49.594;11.022;2023-06-10T05:30:10;7.72;;;6.97;;
9761;SDS011;4920;49.594;11.022;2023-06-10T05:32:39;8.15;;;7.25;;
9761;SDS011;4920;49.594;11.022;2023-06-10T05:35:08;7.57;;;6.65;;
9761;SDS011;4920;49.594;11.022;2023-06-10T05:37:37;7.22;;;6.40;;
9761;SDS011;4920;49.594;11.022;2023-06-10T05:40:06;7.75;;;6.95;;
9761;SDS011;4920;49.594;11.022;2023-06-10T05:42:37;6.95;;;6.22;;
9761;SDS011;4920;49.594;11.022;2023-06-10T05:45:07;9.02;;;6.95;;
9761;SDS011;4920;49.594;11.022;2023-06-10T05:47:37;7.28;;;6.57;;
9761;SDS011;4920;49.594;11.022;2023-06-10T05:50:06;7.35;;;6.60;;
9761;SDS011;4920;49.594;11.022;2023-06-10T05:52:35;7.75;;;6.70;;
9761;SDS011;4920;49.594;11.022;2023-06-10T05:55:07;8.43;;;7.18;;
9761;SDS011;4920;49.594;11.022;2023-06-10T05:57:41;7.72;;;7.00;;
9761;SDS011;4920;49.594;11.022;2023-06-10T06:00:10;7.15;;;6.45;;
9761;SDS011;4920;49.594;11.022;2023-06-10T06:02:41;7.38;;;6.68;;
9761;SDS011;4920;49.594;11.022;2023-06-10T06:05:09;7.85;;;7.00;;
9761;SDS011;4920;49.594;11.022;2023-06-10T06:07:39;7.95;;;7.25;;
9761;SDS011;4920;49.594;11.022;2023-06-10T06:10:08;7.60;;;6.90;;
9761;SDS011;4920;49.594;11.022;2023-06-10T06:12:37;8.00;;;7.20;;
9761;SDS011;4920;49.594;11.022;2023-06-10T06:15:07;9.18;;;7.40;;
9761;SDS011;4920;49.594;11.022;2023-06-10T06:17:37;7.70;;;7.10;;
9761;SDS011;4920;49.594;11.022;2023-06-10T06:20:06;7.55;;;6.85;;
9761;SDS011;4920;49.594;11.022;2023-06-10T06:22:36;8.20;;;7.38;;
9761;SDS011;4920;49.594;11.022;2023-06-10T06:25:05;8.90;;;7.15;;
9761;SDS011;4920;49.594;11.022;2023-06-10T06:27:34;8.90;;;7.32;;
9761;SDS011;4920;49.594;11.022;2023-06-10T06:30:05;8.65;;;7.10;;
9761;SDS011;4920;49.594;11.022;2023-06-10T06:32:34;7.85;;;6.97;;
9761;SDS011;4920;49.594;11.022;2023-06-10T06:35:03;7.30;;;6.70;;
9761;SDS011;4920;49.594;11.022;2023-06-10T06:37:35;7.88;;;7.18;;
9761;SDS011;4920;49.594;11.022;2023-06-10T06:40:26;8.80;;;7.35;;
9761;SDS011;4920;49.594;11.022;2023-06-10T06:42:55;8.48;;;7.13;;
9761;SDS011;4920;49.594;11.022;2023-06-10T06:45:43;7.82;;;7.10;;
9761;SDS011;4920;49.594;11.022;2023-06-10T06:48:12;7.95;;;7.15;;
9761;SDS011;4920;49.594;11.022;2023-06-10T06:50:41;8.27;;;7.47;;
9761;SDS011;4920;49.594;11.022;2023-06-10T06:53:09;8.18;;;7.38;;
9761;SDS011;4920;49.594;11.022;2023-06-10T06:55:38;8.60;;;7.80;;
9761;SDS011;4920;49.594;11.022;2023-06-10T06:58:07;8.75;;;7.85;;
9761;SDS011;4920;49.594;11.022;2023-06-10T07:00:35;8.30;;;7.60;;
9761;SDS011;4920;49.594;11.022;2023-06-10T07:03:05;8.77;;;7.85;;
9761;SDS011;4920;49.594;11.022;2023-06-10T07:05:34;9.02;;;8.07;;
9761;SDS011;4920;49.594;11.022;2023-06-10T07:08:03;9.60;;;8.15;;
9761;SDS011;4920;49.594;11.022;2023-06-10T07:10:32;9.23;;;7.78;;
9761;SDS011;4920;49.594;11.022;2023-06-10T07:13:01;8.50;;;7.70;;
9761;SDS011;4920;49.594;11.022;2023-06-10T07:15:30;10.52;;;8.05;;
9761;SDS011;4920;49.594;11.022;2023-06-10T07:17:59;8.85;;;8.05;;
9761;SDS011;4920;49.594;11.022;2023-06-10T07:20:29;8.57;;;7.82;;
9761;SDS011;4920;49.594;11.022;2023-06-10T07:22:58;8.57;;;7.78;;
9761;SDS011;4920;49.594;11.022;2023-06-10T07:25:26;11.07;;;7.75;;
9761;SDS011;4920;49.594;11.022;2023-06-10T07:27:55;8.25;;;7.47;;
9761;SDS011;4920;49.594;11.022;2023-06-10T07:30:24;9.05;;;7.55;;
9761;SDS011;4920;49.594;11.022;2023-06-10T07:32:52;8.18;;;6.70;;
9761;SDS011;4920;49.594;11.022;2023-06-10T07:35:22;5.15;;;4.65;;
9761;SDS011;4920;49.594;11.022;2023-06-10T07:37:53;5.45;;;4.95;;
9761;SDS011;4920;49.594;11.022;2023-06-10T07:40:21;6.88;;;4.70;;
9761;SDS011;4920;49.594;11.022;2023-06-10T07:42:50;5.45;;;4.40;;
9761;SDS011;4920;49.594;11.022;2023-06-10T07:45:19;5.28;;;4.60;;
9761;SDS011;4920;49.594;11.022;2023-06-10T07:47:48;5.38;;;4.72;;
9761;SDS011;4920;49.594;11.022;2023-06-10T07:50:17;6.38;;;4.93;;
9761;SDS011;4920;49.594;11.022;2023-06-10T07:52:45;5.32;;;4.85;;
9761;SDS011;4920;49.594;11.022;2023-06-10T07:55:15;5.35;;;4.85;;
9761;SDS011;4920;49.594;11.022;2023-06-10T07:57:44;4.78;;;4.32;;
9761;SDS011;4920;49.594;11.022;2023-06-10T08:00:13;4.63;;;4.22;;
9761;SDS011;4920;49.594;11.022;2023-06-10T08:02:43;4.55;;;4.15;;
9761;SDS011;4920;49.594;11.022;2023-06-10T08:05:12;6.25;;;4.45;;
9761;SDS011;4920;49.594;11.022;2023-06-10T08:07:41;6.20;;;4.47;;
9761;SDS011;4920;49.594;11.022;2023-06-10T08:10:10;5.07;;;4.22;;
9761;SDS011;4920;49.594;11.022;2023-06-10T08:12:40;5.90;;;5.22;;
9761;SDS011;4920;49.594;11.022;2023-06-10T08:15:09;5.07;;;4.57;;
9761;SDS011;4920;49.594;11.022;2023-06-10T08:17:38;5.50;;;5.00;;
9761;SDS011;4920;49.594;11.022;2023-06-10T08:20:07;5.82;;;4.80;;
9761;SDS011;4920;49.594;11.022;2023-06-10T08:22:36;5.40;;;4.90;;
9761;SDS011;4920;49.594;11.022;2023-06-10T08:25:06;5.10;;;4.60;;
9761;SDS011;4920;49.594;11.022;2023-06-10T08:27:57;5.93;;;4.47;;
9761;SDS011;4920;49.594;11.022;2023-06-10T08:30:26;4.60;;;4.20;;
9761;SDS011;4920;49.594;11.022;2023-06-10T08:32:55;5.10;;;4.70;;
9761;SDS011;4920;49.594;11.022;2023-06-10T08:35:23;5.13;;;4.63;;
9761;SDS011;4920;49.594;11.022;2023-06-10T08:37:52;4.90;;;4.50;;
9761;SDS011;4920;49.594;11.022;2023-06-10T08:40:21;5.03;;;4.10;;
9761;SDS011;4920;49.594;11.022;2023-06-10T08:42:52;5.63;;;4.43;;
9761;SDS011;4920;49.594;11.022;2023-06-10T08:45:29;4.57;;;4.18;;
9761;SDS011;4920;49.594;11.022;2023-06-10T08:47:59;4.65;;;4.05;;
9761;SDS011;4920;49.594;11.022;2023-06-10T08:50:28;5.53;;;4.20;;
9761;SDS011;4920;49.594;11.022;2023-06-10T08:52:58;4.50;;;3.83;;
9761;SDS011;4920;49.594;11.022;2023-06-10T08:55:30;4.13;;;3.83;;
9761;SDS011;4920;49.594;11.022;2023-06-10T08:58:01;4.70;;;4.20;;
9761;SDS011;4920;49.594;11.022;2023-06-10T09:00:31;4.75;;;4.07;;
9761;SDS011;4920;49.594;11.022;2023-06-10T09:03:01;4.45;;;4.07;;
9761;SDS011;4920;49.594;11.022;2023-06-10T09:05:33;6.85;;;4.10;;
9761;SDS011;4920;49.594;11.022;2023-06-10T09:08:03;4.35;;;3.97;;
9761;SDS011;4920;49.594;11.022;2023-06-10T09:10:33;4.93;;;3.60;;
9761;SDS011;4920;49.594;11.022;2023-06-10T09:13:02;4.95;;;4.00;;
9761;SDS011;4920;49.594;11.022;2023-06-10T09:15:33;3.83;;;3.53;;
9761;SDS011;4920;49.594;11.022;2023-06-10T09:18:01;4.25;;;3.85;;
9761;SDS011;4920;49.594;11.022;2023-06-10T09:20:31;3.90;;;3.60;;
9761;SDS011;4920;49.594;11.022;2023-06-10T09:23:00;3.65;;;3.35;;
9761;SDS011;4920;49.594;11.022;2023-06-10T09:25:36;3.97;;;3.58;;
9761;SDS011;4920;49.594;11.022;2023-06-10T09:28:12;3.92;;;3.60;;
9761;SDS011;4920;49.594;11.022;2023-06-10T09:30:43;4.20;;;3.30;;
9761;SDS011;4920;49.594;11.022;2023-06-10T09:33:12;3.75;;;3.13;;
9761;SDS011;4920;49.594;11.022;2023-06-10T09:35:46;3.10;;;2.90;;
9761;SDS011;4920;49.594;11.022;2023-06-10T09:38:18;3.13;;;2.70;;
9761;SDS011;4920;49.594;11.022;2023-06-10T09:40:52;3.15;;;2.85;;
9761;SDS011;4920;49.594;11.022;2023-06-10T09:43:22;4.07;;;3.15;;
9761;SDS011;4920;49.594;11.022;2023-06-10T09:45:52;3.00;;;2.80;;
9761;SDS011;4920;49.594;11.022;2023-06-10T09:48:24;3.28;;;2.90;;
9761;SDS011;4920;49.594;11.022;2023-06-10T09:50:53;3.03;;;2.83;;
9761;SDS011;4920;49.594;11.022;2023-06-10T09:53:22;4.22;;;3.00;;
9761;SDS011;4920;49.594;11.022;2023-06-10T09:55:51;3.38;;;3.15;;
9761;SDS011;4920;49.594;11.022;2023-06-10T09:58:33;4.30;;;3.40;;
9761;SDS011;4920;49.594;11.022;2023-06-10T10:01:07;3.75;;;3.08;;
9761;SDS011;4920;49.594;11.022;2023-06-10T10:03:44;3.78;;;2.80;;
9761;SDS011;4920;49.594;11.022;2023-06-10T10:06:14;4.03;;;3.08;;
9761;SDS011;4920;49.594;11.022;2023-06-10T10:08:44;3.40;;;3.10;;
9761;SDS011;4920;49.594;11.022;2023-06-10T10:11:13;3.63;;;3.33;;
9761;SDS011;4920;49.594;11.022;2023-06-10T10:13:45;3.58;;;3.13;;
9761;SDS011;4920;49.594;11.022;2023-06-10T10:16:19;3.47;;;3.17;;
9761;SDS011;4920;49.594;11.022;2023-06-10T10:18:51;3.63;;;3.33;;
9761;SDS011;4920;49.594;11.022;2023-06-10T10:21:23;3.28;;;3.00;;
9761;SDS011;4920;49.594;11.022;2023-06-10T10:23:57;5.15;;;3.33;;
9761;SDS011;4920;49.594;11.022;2023-06-10T10:26:29;3.45;;;3.10;;
9761;SDS011;4920;49.594;11.022;2023-06-10T10:29:04;4.25;;;3.38;;
9761;SDS011;4920;49.594;11.022;2023-06-10T10:31:38;3.63;;;3.33;;
9761;SDS011;4920;49.594;11.022;2023-06-10T10:34:12;4.82;;;2.90;;
9761;SDS011;4920;49.594;11.022;2023-06-10T10:36:44;4.35;;;3.00;;
9761;SDS011;4920;49.594;11.022;2023-06-10T10:39:14;3.65;;;3.35;;
9761;SDS011;4920;49.594;11.022;2023-06-10T10:41:43;3.60;;;3.30;;
9761;SDS011;4920;49.594;11.022;2023-06-10T10:44:13;3.53;;;3.22;;
9761;SDS011;4920;49.594;11.022;2023-06-10T10:46:44;4.53;;;3.00;;
9761;SDS011;4920;49.594;11.022;2023-06-10T10:49:17;3.58;;;3.00;;
9761;SDS011;4920;49.594;11.022;2023-06-10T10:51:56;3.70;;;2.90;;
9761;SDS011;4920;49.594;11.022;2023-06-10T10:54:29;3.72;;;3.22;;
9761;SDS011;4920;49.594;11.022;2023-06-10T10:57:09;3.22;;;2.92;;
9761;SDS011;4920;49.594;11.022;2023-06-10T10:59:46;3.70;;;3.40;;
9761;SDS011;4920;49.594;11.022;2023-06-10T11:02:33;4.95;;;3.50;;
9761;SDS011;4920;49.594;11.022;2023-06-10T11:05:06;3.65;;;3.17;;
9761;SDS011;4920;49.594;11.022;2023-06-10T11:07:36;4.30;;;3.30;;
9761;SDS011;4920;49.594;11.022;2023-06-10T11:10:06;3.50;;;3.20;;
9761;SDS011;4920;49.594;11.022;2023-06-10T11:12:40;3.25;;;2.95;;
9761;SDS011;4920;49.594;11.022;2023-06-10T11:15:20;4.30;;;3.15;;
9761;SDS011;4920;49.594;11.022;2023-06-10T11:18:08;5.28;;;3.00;;
9761;SDS011;4920;49.594;11.022;2023-06-10T11:20:42;3.67;;;3.38;;
9761;SDS011;4920;49.594;11.022;2023-06-10T11:23:24;3.50;;;3.30;;
9761;SDS011;4920;49.594;11.022;2023-06-10T11:26:08;4.47;;;3.80;;
9761;SDS011;4920;49.594;11.022;2023-06-10T11:28:41;5.15;;;3.60;;
9761;SDS011;4920;49.594;11.022;2023-06-10T11:31:29;3.85;;;3.55;;
9761;SDS011;4920;49.594;11.022;2023-06-10T11:34:01;4.15;;;3.85;;
9761;SDS011;4920;49.594;11.022;2023-06-10T11:36:32;4.10;;;3.63;;
9761;SDS011;4920;49.594;11.022;2023-06-10T11:39:02;3.92;;;3.63;;
9761;SDS011;4920;49.594;11.022;2023-06-10T11:41:32;4.25;;;3.75;;
9761;SDS011;4920;49.594;11.022;2023-06-10T11:44:02;3.78;;;3.47;;
9761;SDS011;4920;49.594;11.022;2023-06-10T11:46:33;3.72;;;3.42;;
9761;SDS011;4920;49.594;11.022;2023-06-10T11:49:03;4.07;;;3.42;;
9761;SDS011;4920;49.594;11.022;2023-06-10T11:51:33;3.95;;;3.55;;
9761;SDS011;4920;49.594;11.022;2023-06-10T11:54:04;4.38;;;3.60;;
9761;SDS011;4920;49.594;11.022;2023-06-10T11:56:33;3.60;;;3.30;;
9761;SDS011;4920;49.594;11.022;2023-06-10T11:59:03;6.47;;;3.50;;
9761;SDS011;4920;49.594;11.022;2023-06-10T12:01:35;3.60;;;3.30;;
9761;SDS011;4920;49.594;11.022;2023-06-10T12:04:11;5.32;;;3.50;;
9761;SDS011;4920;49.594;11.022;2023-06-10T12:06:41;3.25;;;2.97;;
9761;SDS011;4920;49.594;11.022;2023-06-10T12:09:14;3.90;;;3.50;;
9761;SDS011;4920;49.594;11.022;2023-06-10T12:11:55;4.10;;;3.70;;
9761;SDS011;4920;49.594;11.022;2023-06-10T12:17:22;3.80;;;3.50;;
9761;SDS011;4920;49.594;11.022;2023-06-10T12:20:06;3.72;;;3.10;;
9761;SDS011;4920;49.594;11.022;2023-06-10T12:22:39;3.55;;;3.13;;
9761;SDS011;4920;49.594;11.022;2023-06-10T12:25:10;4.20;;;3.17;;
9761;SDS011;4920;49.594;11.022;2023-06-10T12:27:40;3.33;;;3.03;;
9761;SDS011;4920;49.594;11.022;2023-06-10T12:30:19;3.38;;;3.10;;
9761;SDS011;4920;49.594;11.022;2023-06-10T12:32:48;3.13;;;2.92;;
9761;SDS011;4920;49.594;11.022;2023-06-10T12:35:19;3.40;;;3.10;;
9761;SDS011;4920;49.594;11.022;2023-06-10T12:37:56;3.22;;;2.92;;
9761;SDS011;4920;49.594;11.022;2023-06-10T12:40:28;3.05;;;2.72;;
9761;SDS011;4920;49.594;11.022;2023-06-10T12:42:58;2.97;;;2.70;;
9761;SDS011;4920;49.594;11.022;2023-06-10T12:45:28;3.33;;;3.03;;
9761;SDS011;4920;49.594;11.022;2023-06-10T12:48:07;3.00;;;2.70;;
9761;SDS011;4920;49.594;11.022;2023-06-10T12:50:39;2.70;;;2.50;;
9761;SDS011;4920;49.594;11.022;2023-06-10T12:53:10;3.00;;;2.70;;
9761;SDS011;4920;49.594;11.022;2023-06-10T12:55:39;3.80;;;2.75;;
9761;SDS011;4920;49.594;11.022;2023-06-10T12:58:07;2.70;;;2.50;;
9761;SDS011;4920;49.594;11.022;2023-06-10T13:00:36;3.33;;;2.60;;
9761;SDS011;4920;49.594;11.022;2023-06-10T13:03:05;2.88;;;2.67;;
9761;SDS011;4920;49.594;11.022;2023-06-10T13:05:34;2.85;;;2.65;;
9761;SDS011;4920;49.594;11.022;2023-06-10T13:08:07;2.63;;;2.42;;
9761;SDS011;4920;49.594;11.022;2023-06-10T13:10:38;2.80;;;2.60;;
9761;SDS011;4920;49.594;11.022;2023-06-10T13:13:07;3.03;;;2.65;;
9761;SDS011;4920;49.594;11.022;2023-06-10T13:15:36;2.80;;;2.60;;
9761;SDS011;4920;49.594;11.022;2023-06-10T13:18:09;2.72;;;2.53;;
9761;SDS011;4920;49.594;11.022;2023-06-10T13:20:38;2.75;;;2.55;;
9761;SDS011;4920;49.594;11.022;2023-06-10T13:23:09;3.65;;;2.72;;
9761;SDS011;4920;49.594;11.022;2023-06-10T13:25:38;2.70;;;2.40;;
9761;SDS011;4920;49.594;11.022;2023-06-10T13:28:07;2.50;;;2.30;;
9761;SDS011;4920;49.594;11.022;2023-06-10T13:30:36;3.88;;;2.40;;
9761;SDS011;4920;49.594;11.022;2023-06-10T13:33:04;3.00;;;2.70;;
9761;SDS011;4920;49.594;11.022;2023-06-10T13:35:33;2.72;;;2.50;;
9761;SDS011;4920;49.594;11.022;2023-06-10T13:38:02;2.78;;;2.58;;
9761;SDS011;4920;49.594;11.022;2023-06-10T13:40:32;2.80;;;2.60;;
9761;SDS011;4920;49.594;11.022;2023-06-10T13:43:01;2.58;;;2.38;;
9761;SDS011;4920;49.594;11.022;2023-06-10T13:45:29;2.50;;;2.30;;
9761;SDS011;4920;49.594;11.022;2023-06-10T13:47:58;3.65;;;2.40;;
9761;SDS011;4920;49.594;11.022;2023-06-10T13:50:28;2.47;;;2.28;;
9761;SDS011;4920;49.594;11.022;2023-06-10T13:52:56;2.83;;;2.05;;
9761;SDS011;4920;49.594;11.022;2023-06-10T13:55:29;2.40;;;2.20;;
9761;SDS011;4920;49.594;11.022;2023-06-10T13:57:59;2.70;;;2.50;;
9761;SDS011;4920;49.594;11.022;2023-06-10T14:00:27;2.72;;;2.53;;
9761;SDS011;4920;49.594;11.022;2023-06-10T14:02:56;2.65;;;2.45;;
9761;SDS011;4920;49.594;11.022;2023-06-10T14:05:25;3.00;;;2.70;;
9761;SDS011;4920;49.594;11.022;2023-06-10T14:07:57;2.92;;;2.50;;
9761;SDS011;4920;49.594;11.022;2023-06-10T14:10:26;3.40;;;3.10;;
9761;SDS011;4920;49.594;11.022;2023-06-10T14:12:54;3.17;;;2.92;;
9761;SDS011;4920;49.594;11.022;2023-06-10T14:15:24;2.83;;;2.63;;
9761;SDS011;4920;49.594;11.022;2023-06-10T14:17:53;5.55;;;3.65;;
9761;SDS011;4920;49.594;11.022;2023-06-10T14:20:22;2.75;;;2.55;;
9761;SDS011;4920;49.594;11.022;2023-06-10T14:22:52;3.42;;;2.83;;
9761;SDS011;4920;49.594;11.022;2023-06-10T14:25:21;2.95;;;2.75;;
9761;SDS011;4920;49.594;11.022;2023-06-10T14:27:50;2.45;;;2.25;;
9761;SDS011;4920;49.594;11.022;2023-06-10T14:30:19;2.70;;;2.40;;
9761;SDS011;4920;49.594;11.022;2023-06-10T14:32:49;2.45;;;2.25;;
9761;SDS011;4920;49.594;11.022;2023-06-10T14:35:18;2.40;;;2.20;;
9761;SDS011;4920;49.594;11.022;2023-06-10T14:37:47;2.40;;;2.20;;
9761;SDS011;4920;49.594;11.022;2023-06-10T14:40:16;2.20;;;2.10;;
9761;SDS011;4920;49.594;11.022;2023-06-10T14:42:44;2.95;;;2.75;;
9761;SDS011;4920;49.594;11.022;2023-06-10T14:45:13;2.65;;;2.45;;
9761;SDS011;4920;49.594;11.022;2023-06-10T14:47:42;2.63;;;2.42;;
9761;SDS011;4920;49.594;11.022;2023-06-10T14:50:13;2.45;;;2.25;;
9761;SDS011;4920;49.594;11.022;2023-06-10T14:52:42;2.60;;;2.40;;
9761;SDS011;4920;49.594;11.022;2023-06-10T14:55:11;2.60;;;2.40;;
9761;SDS011;4920;49.594;11.022;2023-06-10T14:57:40;2.60;;;2.40;;
9761;SDS011;4920;49.594;11.022;2023-06-10T15:00:09;2.70;;;2.50;;
9761;SDS011;4920;49.594;11.022;2023-06-10T15:02:38;2.75;;;2.53;;
9761;SDS011;4920;49.594;11.022;2023-06-10T15:05:07;3.95;;;2.90;;
9761;SDS011;4920;49.594;11.022;2023-06-10T15:07:38;4.07;;;2.88;;
9761;SDS011;4920;49.594;11.022;2023-06-10T15:10:07;3.30;;;3.00;;
9761;SDS011;4920;49.594;11.022;2023-06-10T15:12:36;6.15;;;3.38;;
9761;SDS011;4920;49.594;11.022;2023-06-10T15:15:05;4.70;;;3.55;;
9761;SDS011;4920;49.594;11.022;2023-06-10T15:17:34;3.72;;;3.40;;
9761;SDS011;4920;49.594;11.022;2023-06-10T15:20:03;4.30;;;3.72;;